sensor_id;sensor_type;location;lat;lon;timestamp;P1;durP1;ratioP1;P2;durP2;ratioP2
64188;SDS011;50493;50.970;10.082;2023-05-27T00:01:25;9.77;;;4.93;;
64188;SDS011;50493;50.970;10.082;2023-05-27T00:03:52;11.35;;;6.22;;
64188;SDS011;50493;50.970;10.082;2023-05-27T00:06:17;9.43;;;5.35;;
64188;SDS011;50493;50.970;10.082;2023-05-27T00:08:42;11.07;;;5.65;;
64188;SDS011;50493;50.970;10.082;2023-05-27T00:11:08;10.05;;;5.40;;
64188;SDS011;50493;50.970;10.082;2023-05-27T00:13:33;10.07;;;5.70;;
64188;SDS011;50493;50.970;10.082;2023-05-27T00:15:58;10.35;;;5.30;;
64188;SDS011;50493;50.970;10.082;2023-05-27T00:18:24;8.60;;;5.15;;
64188;SDS011;50493;50.970;10.082;2023-05-27T00:20:50;8.93;;;5.18;;
64188;SDS011;50493;50.970;10.082;2023-05-27T00:23:16;9.32;;;4.93;;
64188;SDS011;50493;50.970;10.082;2023-05-27T00:25:41;10.38;;;5.20;;
64188;SDS011;50493;50.970;10.082;2023-05-27T00:28:06;8.35;;;4.88;;
64188;SDS011;50493;50.970;10.082;2023-05-27T00:30:32;7.85;;;5.10;;
64188;SDS011;50493;50.970;10.082;2023-05-27T00:32:57;10.55;;;5.22;;
64188;SDS011;50493;50.970;10.082;2023-05-27T00:35:23;8.05;;;4.88;;
64188;SDS011;50493;50.970;10.082;2023-05-27T00:37:49;9.10;;;4.82;;
64188;SDS011;50493;50.970;10.082;2023-05-27T00:40:16;11.00;;;5.53;;
64188;SDS011;50493;50.970;10.082;2023-05-27T00:42:46;10.30;;;5.07;;
64188;SDS011;50493;50.970;10.082;2023-05-27T00:45:12;8.65;;;4.90;;
64188;SDS011;50493;50.970;10.082;2023-05-27T00:47:37;7.97;;;4.57;;
64188;SDS011;50493;50.970;10.082;2023-05-27T00:50:03;8.48;;;4.97;;
64188;SDS011;50493;50.970;10.082;2023-05-27T00:52:29;8.07;;;4.28;;
64188;SDS011;50493;50.970;10.082;2023-05-27T00:54:56;8.00;;;4.40;;
64188;SDS011;50493;50.970;10.082;2023-05-27T00:57:23;8.88;;;4.50;;
64188;SDS011;50493;50.970;10.082;2023-05-27T00:59:48;8.65;;;4.45;;
64188;SDS011;50493;50.970;10.082;2023-05-27T01:02:13;7.38;;;4.28;;
64188;SDS011;50493;50.970;10.082;2023-05-27T01:04:39;8.23;;;4.60;;
64188;SDS011;50493;50.970;10.082;2023-05-27T01:07:08;9.10;;;4.80;;
64188;SDS011;50493;50.970;10.082;2023-05-27T01:09:40;8.30;;;4.60;;
64188;SDS011;50493;50.970;10.082;2023-05-27T01:12:12;7.65;;;4.18;;
64188;SDS011;50493;50.970;10.082;2023-05-27T01:14:43;8.43;;;4.60;;
64188;SDS011;50493;50.970;10.082;2023-05-27T01:17:10;8.15;;;4.32;;
64188;SDS011;50493;50.970;10.082;2023-05-27T01:19:37;8.65;;;4.55;;
64188;SDS011;50493;50.970;10.082;2023-05-27T01:22:11;8.68;;;4.43;;
64188;SDS011;50493;50.970;10.082;2023-05-27T01:24:38;8.43;;;3.83;;
64188;SDS011;50493;50.970;10.082;2023-05-27T01:27:06;9.05;;;4.22;;
64188;SDS011;50493;50.970;10.082;2023-05-27T01:29:33;9.43;;;4.10;;
64188;SDS011;50493;50.970;10.082;2023-05-27T01:32:01;8.93;;;3.97;;
64188;SDS011;50493;50.970;10.082;2023-05-27T01:34:33;6.97;;;4.05;;
64188;SDS011;50493;50.970;10.082;2023-05-27T01:37:02;8.35;;;3.67;;
64188;SDS011;50493;50.970;10.082;2023-05-27T01:39:32;8.38;;;3.72;;
64188;SDS011;50493;50.970;10.082;2023-05-27T01:42:00;6.97;;;4.30;;
64188;SDS011;50493;50.970;10.082;2023-05-27T01:44:27;7.00;;;3.38;;
64188;SDS011;50493;50.970;10.082;2023-05-27T01:46:57;6.82;;;3.47;;
64188;SDS011;50493;50.970;10.082;2023-05-27T01:49:23;5.97;;;3.55;;
64188;SDS011;50493;50.970;10.082;2023-05-27T01:51:48;8.10;;;3.78;;
64188;SDS011;50493;50.970;10.082;2023-05-27T01:54:14;6.57;;;3.30;;
64188;SDS011;50493;50.970;10.082;2023-05-27T01:56:39;6.45;;;3.60;;
64188;SDS011;50493;50.970;10.082;2023-05-27T01:59:06;9.20;;;3.58;;
64188;SDS011;50493;50.970;10.082;2023-05-27T02:01:32;6.75;;;3.20;;
64188;SDS011;50493;50.970;10.082;2023-05-27T02:03:58;7.38;;;3.17;;
64188;SDS011;50493;50.970;10.082;2023-05-27T02:06:24;6.82;;;3.17;;
64188;SDS011;50493;50.970;10.082;2023-05-27T02:08:50;7.30;;;3.28;;
64188;SDS011;50493;50.970;10.082;2023-05-27T02:11:15;6.80;;;3.60;;
64188;SDS011;50493;50.970;10.082;2023-05-27T02:13:41;6.22;;;3.30;;
64188;SDS011;50493;50.970;10.082;2023-05-27T02:16:08;8.10;;;3.42;;
64188;SDS011;50493;50.970;10.082;2023-05-27T02:18:34;9.23;;;3.20;;
64188;SDS011;50493;50.970;10.082;2023-05-27T02:21:00;5.60;;;3.20;;
64188;SDS011;50493;50.970;10.082;2023-05-27T02:23:30;6.03;;;3.25;;
64188;SDS011;50493;50.970;10.082;2023-05-27T02:25:55;7.43;;;3.13;;
64188;SDS011;50493;50.970;10.082;2023-05-27T02:28:21;6.35;;;3.17;;
64188;SDS011;50493;50.970;10.082;2023-05-27T02:30:46;6.03;;;3.03;;
64188;SDS011;50493;50.970;10.082;2023-05-27T02:33:13;6.38;;;3.10;;
64188;SDS011;50493;50.970;10.082;2023-05-27T02:35:38;6.03;;;2.67;;
64188;SDS011;50493;50.970;10.082;2023-05-27T02:38:03;6.30;;;3.10;;
64188;SDS011;50493;50.970;10.082;2023-05-27T02:40:29;6.22;;;3.30;;
64188;SDS011;50493;50.970;10.082;2023-05-27T02:42:55;5.95;;;2.90;;
64188;SDS011;50493;50.970;10.082;2023-05-27T02:45:20;4.88;;;2.90;;
64188;SDS011;50493;50.970;10.082;2023-05-27T02:47:45;5.97;;;3.03;;
64188;SDS011;50493;50.970;10.082;2023-05-27T02:50:12;5.57;;;2.60;;
64188;SDS011;50493;50.970;10.082;2023-05-27T02:52:37;7.47;;;2.80;;
64188;SDS011;50493;50.970;10.082;2023-05-27T02:55:03;5.10;;;2.67;;
64188;SDS011;50493;50.970;10.082;2023-05-27T02:57:29;4.88;;;2.58;;
64188;SDS011;50493;50.970;10.082;2023-05-27T02:59:55;4.53;;;2.65;;
64188;SDS011;50493;50.970;10.082;2023-05-27T03:02:20;7.95;;;3.60;;
64188;SDS011;50493;50.970;10.082;2023-05-27T03:04:45;7.03;;;2.95;;
64188;SDS011;50493;50.970;10.082;2023-05-27T03:07:14;5.75;;;2.70;;
64188;SDS011;50493;50.970;10.082;2023-05-27T03:09:39;5.30;;;2.85;;
64188;SDS011;50493;50.970;10.082;2023-05-27T03:12:04;8.80;;;3.33;;
64188;SDS011;50493;50.970;10.082;2023-05-27T03:14:30;6.32;;;3.20;;
64188;SDS011;50493;50.970;10.082;2023-05-27T03:16:56;7.30;;;3.20;;
64188;SDS011;50493;50.970;10.082;2023-05-27T03:19:21;9.00;;;3.58;;
64188;SDS011;50493;50.970;10.082;2023-05-27T03:21:46;6.78;;;2.90;;
64188;SDS011;50493;50.970;10.082;2023-05-27T03:24:13;7.53;;;3.22;;
64188;SDS011;50493;50.970;10.082;2023-05-27T03:26:38;6.65;;;3.20;;
64188;SDS011;50493;50.970;10.082;2023-05-27T03:29:04;5.47;;;3.08;;
64188;SDS011;50493;50.970;10.082;2023-05-27T03:31:30;6.32;;;3.25;;
64188;SDS011;50493;50.970;10.082;2023-05-27T03:33:56;6.07;;;2.65;;
64188;SDS011;50493;50.970;10.082;2023-05-27T03:36:21;5.82;;;2.70;;
64188;SDS011;50493;50.970;10.082;2023-05-27T03:38:46;5.32;;;2.70;;
64188;SDS011;50493;50.970;10.082;2023-05-27T03:41:13;7.22;;;2.92;;
64188;SDS011;50493;50.970;10.082;2023-05-27T03:43:38;5.35;;;2.78;;
64188;SDS011;50493;50.970;10.082;2023-05-27T03:46:04;6.55;;;3.00;;
64188;SDS011;50493;50.970;10.082;2023-05-27T03:48:29;6.85;;;2.78;;
64188;SDS011;50493;50.970;10.082;2023-05-27T03:50:54;4.72;;;2.83;;
64188;SDS011;50493;50.970;10.082;2023-05-27T03:53:20;6.22;;;2.80;;
64188;SDS011;50493;50.970;10.082;2023-05-27T03:55:45;6.03;;;3.03;;
64188;SDS011;50493;50.970;10.082;2023-05-27T03:58:12;7.95;;;3.50;;
64188;SDS011;50493;50.970;10.082;2023-05-27T04:00:38;5.40;;;2.97;;
64188;SDS011;50493;50.970;10.082;2023-05-27T04:03:04;5.53;;;3.10;;
64188;SDS011;50493;50.970;10.082;2023-05-27T04:05:29;5.18;;;2.85;;
64188;SDS011;50493;50.970;10.082;2023-05-27T04:07:54;7.55;;;3.15;;
64188;SDS011;50493;50.970;10.082;2023-05-27T04:10:21;9.00;;;3.42;;
64188;SDS011;50493;50.970;10.082;2023-05-27T04:12:46;5.72;;;3.30;;
64188;SDS011;50493;50.970;10.082;2023-05-27T04:15:13;6.38;;;3.13;;
64188;SDS011;50493;50.970;10.082;2023-05-27T04:17:38;6.70;;;3.47;;
64188;SDS011;50493;50.970;10.082;2023-05-27T04:20:04;6.88;;;3.08;;
64188;SDS011;50493;50.970;10.082;2023-05-27T04:22:39;6.32;;;2.97;;
64188;SDS011;50493;50.970;10.082;2023-05-27T04:25:06;6.65;;;2.95;;
64188;SDS011;50493;50.970;10.082;2023-05-27T04:27:31;6.50;;;3.03;;
64188;SDS011;50493;50.970;10.082;2023-05-27T04:29:57;6.38;;;3.13;;
64188;SDS011;50493;50.970;10.082;2023-05-27T04:32:25;7.38;;;3.13;;
64188;SDS011;50493;50.970;10.082;2023-05-27T04:34:52;5.15;;;2.60;;
64188;SDS011;50493;50.970;10.082;2023-05-27T04:37:17;4.95;;;2.80;;
64188;SDS011;50493;50.970;10.082;2023-05-27T04:39:44;8.68;;;3.15;;
64188;SDS011;50493;50.970;10.082;2023-05-27T04:42:10;6.68;;;3.03;;
64188;SDS011;50493;50.970;10.082;2023-05-27T04:44:35;5.47;;;2.90;;
64188;SDS011;50493;50.970;10.082;2023-05-27T04:47:01;4.65;;;2.70;;
64188;SDS011;50493;50.970;10.082;2023-05-27T04:49:27;5.78;;;2.45;;
64188;SDS011;50493;50.970;10.082;2023-05-27T04:51:53;6.10;;;2.92;;
64188;SDS011;50493;50.970;10.082;2023-05-27T04:54:19;6.47;;;2.80;;
64188;SDS011;50493;50.970;10.082;2023-05-27T04:56:46;6.63;;;3.30;;
64188;SDS011;50493;50.970;10.082;2023-05-27T04:59:11;5.68;;;3.00;;
64188;SDS011;50493;50.970;10.082;2023-05-27T05:01:41;5.30;;;2.97;;
64188;SDS011;50493;50.970;10.082;2023-05-27T05:04:25;8.43;;;3.28;;
64188;SDS011;50493;50.970;10.082;2023-05-27T05:06:52;6.50;;;2.78;;
64188;SDS011;50493;50.970;10.082;2023-05-27T05:09:20;6.03;;;3.05;;
64188;SDS011;50493;50.970;10.082;2023-05-27T05:11:46;6.13;;;2.97;;
64188;SDS011;50493;50.970;10.082;2023-05-27T05:14:11;6.68;;;3.20;;
64188;SDS011;50493;50.970;10.082;2023-05-27T05:16:36;7.82;;;3.30;;
64188;SDS011;50493;50.970;10.082;2023-05-27T05:19:02;6.05;;;2.97;;
64188;SDS011;50493;50.970;10.082;2023-05-27T05:21:27;5.25;;;2.95;;
64188;SDS011;50493;50.970;10.082;2023-05-27T05:23:54;5.18;;;3.05;;
64188;SDS011;50493;50.970;10.082;2023-05-27T05:26:19;8.10;;;2.95;;
64188;SDS011;50493;50.970;10.082;2023-05-27T05:28:44;4.97;;;2.63;;
64188;SDS011;50493;50.970;10.082;2023-05-27T05:31:10;8.27;;;3.25;;
64188;SDS011;50493;50.970;10.082;2023-05-27T05:33:35;4.75;;;2.50;;
64188;SDS011;50493;50.970;10.082;2023-05-27T05:36:01;4.50;;;2.67;;
64188;SDS011;50493;50.970;10.082;2023-05-27T05:38:26;4.63;;;2.67;;
64188;SDS011;50493;50.970;10.082;2023-05-27T05:40:53;5.28;;;2.90;;
64188;SDS011;50493;50.970;10.082;2023-05-27T05:43:19;5.53;;;3.22;;
64188;SDS011;50493;50.970;10.082;2023-05-27T05:45:45;7.15;;;3.00;;
64188;SDS011;50493;50.970;10.082;2023-05-27T05:48:10;9.75;;;3.72;;
64188;SDS011;50493;50.970;10.082;2023-05-27T05:50:36;9.40;;;3.40;;
64188;SDS011;50493;50.970;10.082;2023-05-27T05:53:01;9.80;;;3.83;;
64188;SDS011;50493;50.970;10.082;2023-05-27T05:55:26;7.45;;;3.20;;
64188;SDS011;50493;50.970;10.082;2023-05-27T05:57:53;10.55;;;4.10;;
64188;SDS011;50493;50.970;10.082;2023-05-27T06:00:18;9.80;;;3.90;;
64188;SDS011;50493;50.970;10.082;2023-05-27T06:02:44;8.20;;;3.38;;
64188;SDS011;50493;50.970;10.082;2023-05-27T06:05:09;7.40;;;3.20;;
64188;SDS011;50493;50.970;10.082;2023-05-27T06:07:35;7.90;;;3.67;;
64188;SDS011;50493;50.970;10.082;2023-05-27T06:10:00;6.47;;;3.50;;
64188;SDS011;50493;50.970;10.082;2023-05-27T06:12:25;8.73;;;3.33;;
64188;SDS011;50493;50.970;10.082;2023-05-27T06:14:52;9.60;;;4.07;;
64188;SDS011;50493;50.970;10.082;2023-05-27T06:17:17;7.47;;;3.40;;
64188;SDS011;50493;50.970;10.082;2023-05-27T06:19:43;8.45;;;3.78;;
64188;SDS011;50493;50.970;10.082;2023-05-27T06:22:08;10.60;;;3.50;;
64188;SDS011;50493;50.970;10.082;2023-05-27T06:24:33;11.13;;;3.67;;
64188;SDS011;50493;50.970;10.082;2023-05-27T06:26:59;6.75;;;3.25;;
64188;SDS011;50493;50.970;10.082;2023-05-27T06:29:25;8.18;;;3.70;;
64188;SDS011;50493;50.970;10.082;2023-05-27T06:31:52;10.75;;;3.50;;
64188;SDS011;50493;50.970;10.082;2023-05-27T06:34:18;11.32;;;4.03;;
64188;SDS011;50493;50.970;10.082;2023-05-27T06:36:43;6.18;;;3.15;;
64188;SDS011;50493;50.970;10.082;2023-05-27T06:39:08;6.43;;;3.00;;
64188;SDS011;50493;50.970;10.082;2023-05-27T06:41:34;9.18;;;3.35;;
64188;SDS011;50493;50.970;10.082;2023-05-27T06:43:59;9.50;;;3.58;;
64188;SDS011;50493;50.970;10.082;2023-05-27T06:46:25;9.68;;;3.78;;
64188;SDS011;50493;50.970;10.082;2023-05-27T06:48:52;9.90;;;4.30;;
64188;SDS011;50493;50.970;10.082;2023-05-27T06:51:17;8.35;;;3.17;;
64188;SDS011;50493;50.970;10.082;2023-05-27T06:53:43;6.50;;;3.20;;
64188;SDS011;50493;50.970;10.082;2023-05-27T06:56:08;6.75;;;3.15;;
64188;SDS011;50493;50.970;10.082;2023-05-27T06:58:34;8.13;;;3.47;;
64188;SDS011;50493;50.970;10.082;2023-05-27T07:00:59;6.55;;;3.17;;
64188;SDS011;50493;50.970;10.082;2023-05-27T07:03:24;8.90;;;3.83;;
64188;SDS011;50493;50.970;10.082;2023-05-27T07:05:51;7.57;;;3.58;;
64188;SDS011;50493;50.970;10.082;2023-05-27T07:08:17;8.95;;;3.90;;
64188;SDS011;50493;50.970;10.082;2023-05-27T07:10:42;13.48;;;3.70;;
64188;SDS011;50493;50.970;10.082;2023-05-27T07:13:07;7.45;;;3.10;;
64188;SDS011;50493;50.970;10.082;2023-05-27T07:15:33;8.75;;;3.58;;
64188;SDS011;50493;50.970;10.082;2023-05-27T07:17:58;9.98;;;4.10;;
64188;SDS011;50493;50.970;10.082;2023-05-27T07:20:24;11.23;;;4.15;;
64188;SDS011;50493;50.970;10.082;2023-05-27T07:22:50;14.80;;;4.47;;
64188;SDS011;50493;50.970;10.082;2023-05-27T07:25:16;15.35;;;4.22;;
64188;SDS011;50493;50.970;10.082;2023-05-27T07:27:41;7.97;;;3.63;;
64188;SDS011;50493;50.970;10.082;2023-05-27T07:30:07;6.75;;;3.20;;
64188;SDS011;50493;50.970;10.082;2023-05-27T07:32:33;9.32;;;2.97;;
64188;SDS011;50493;50.970;10.082;2023-05-27T07:34:58;10.73;;;3.75;;
64188;SDS011;50493;50.970;10.082;2023-05-27T07:37:24;7.20;;;3.38;;
64188;SDS011;50493;50.970;10.082;2023-05-27T07:39:52;11.60;;;4.22;;
64188;SDS011;50493;50.970;10.082;2023-05-27T07:42:17;8.98;;;3.50;;
64188;SDS011;50493;50.970;10.082;2023-05-27T07:44:43;5.18;;;3.03;;
64188;SDS011;50493;50.970;10.082;2023-05-27T07:47:08;10.65;;;4.18;;
64188;SDS011;50493;50.970;10.082;2023-05-27T07:49:33;8.05;;;3.50;;
64188;SDS011;50493;50.970;10.082;2023-05-27T07:51:59;9.55;;;3.70;;
64188;SDS011;50493;50.970;10.082;2023-05-27T07:54:24;11.38;;;3.97;;
64188;SDS011;50493;50.970;10.082;2023-05-27T07:56:53;10.60;;;4.00;;
64188;SDS011;50493;50.970;10.082;2023-05-27T07:59:18;8.77;;;3.50;;
64188;SDS011;50493;50.970;10.082;2023-05-27T08:01:43;5.95;;;3.25;;
64188;SDS011;50493;50.970;10.082;2023-05-27T08:04:09;8.50;;;3.65;;
64188;SDS011;50493;50.970;10.082;2023-05-27T08:06:34;11.52;;;4.10;;
64188;SDS011;50493;50.970;10.082;2023-05-27T08:09:00;5.20;;;2.78;;
64188;SDS011;50493;50.970;10.082;2023-05-27T08:11:26;9.02;;;3.65;;
64188;SDS011;50493;50.970;10.082;2023-05-27T08:13:53;8.60;;;3.50;;
64188;SDS011;50493;50.970;10.082;2023-05-27T08:16:18;14.48;;;4.30;;
64188;SDS011;50493;50.970;10.082;2023-05-27T08:18:44;12.65;;;4.65;;
64188;SDS011;50493;50.970;10.082;2023-05-27T08:21:09;8.57;;;3.72;;
64188;SDS011;50493;50.970;10.082;2023-05-27T08:23:34;7.28;;;3.45;;
64188;SDS011;50493;50.970;10.082;2023-05-27T08:26:00;11.15;;;4.28;;
64188;SDS011;50493;50.970;10.082;2023-05-27T08:28:25;9.75;;;4.30;;
64188;SDS011;50493;50.970;10.082;2023-05-27T08:30:52;9.23;;;3.50;;
64188;SDS011;50493;50.970;10.082;2023-05-27T08:33:17;9.25;;;3.55;;
64188;SDS011;50493;50.970;10.082;2023-05-27T08:35:43;8.93;;;3.28;;
64188;SDS011;50493;50.970;10.082;2023-05-27T08:38:08;12.35;;;4.50;;
64188;SDS011;50493;50.970;10.082;2023-05-27T08:40:34;11.73;;;3.97;;
64188;SDS011;50493;50.970;10.082;2023-05-27T08:43:00;7.88;;;3.55;;
64188;SDS011;50493;50.970;10.082;2023-05-27T08:45:27;9.00;;;3.53;;
64188;SDS011;50493;50.970;10.082;2023-05-27T08:47:54;9.38;;;4.07;;
64188;SDS011;50493;50.970;10.082;2023-05-27T08:50:19;10.07;;;4.55;;
64188;SDS011;50493;50.970;10.082;2023-05-27T08:52:45;12.98;;;4.32;;
64188;SDS011;50493;50.970;10.082;2023-05-27T08:55:15;10.30;;;4.28;;
64188;SDS011;50493;50.970;10.082;2023-05-27T08:57:42;6.60;;;3.13;;
64188;SDS011;50493;50.970;10.082;2023-05-27T09:00:10;5.97;;;3.40;;
64188;SDS011;50493;50.970;10.082;2023-05-27T09:02:38;6.28;;;3.53;;
64188;SDS011;50493;50.970;10.082;2023-05-27T09:05:05;7.45;;;3.60;;
64188;SDS011;50493;50.970;10.082;2023-05-27T09:07:33;11.85;;;4.63;;
64188;SDS011;50493;50.970;10.082;2023-05-27T09:09:58;8.20;;;3.75;;
64188;SDS011;50493;50.970;10.082;2023-05-27T09:12:24;11.65;;;4.28;;
64188;SDS011;50493;50.970;10.082;2023-05-27T09:14:50;7.97;;;3.55;;
64188;SDS011;50493;50.970;10.082;2023-05-27T09:17:16;7.30;;;3.92;;
64188;SDS011;50493;50.970;10.082;2023-05-27T09:19:41;8.57;;;3.47;;
64188;SDS011;50493;50.970;10.082;2023-05-27T09:22:08;7.35;;;3.67;;
64188;SDS011;50493;50.970;10.082;2023-05-27T09:24:34;6.68;;;3.42;;
64188;SDS011;50493;50.970;10.082;2023-05-27T09:26:59;12.25;;;4.70;;
64188;SDS011;50493;50.970;10.082;2023-05-27T09:29:25;11.73;;;4.78;;
64188;SDS011;50493;50.970;10.082;2023-05-27T09:31:53;8.77;;;4.00;;
64188;SDS011;50493;50.970;10.082;2023-05-27T09:34:19;9.43;;;3.92;;
64188;SDS011;50493;50.970;10.082;2023-05-27T09:36:44;13.57;;;4.90;;
64188;SDS011;50493;50.970;10.082;2023-05-27T09:39:12;7.57;;;3.65;;
64188;SDS011;50493;50.970;10.082;2023-05-27T09:41:38;10.38;;;4.20;;
64188;SDS011;50493;50.970;10.082;2023-05-27T09:44:05;8.45;;;3.85;;
64188;SDS011;50493;50.970;10.082;2023-05-27T09:46:30;8.40;;;3.78;;
64188;SDS011;50493;50.970;10.082;2023-05-27T09:48:57;8.90;;;4.03;;
64188;SDS011;50493;50.970;10.082;2023-05-27T09:51:23;12.20;;;4.75;;
64188;SDS011;50493;50.970;10.082;2023-05-27T09:53:49;9.38;;;4.38;;
64188;SDS011;50493;50.970;10.082;2023-05-27T09:56:19;11.23;;;4.38;;
64188;SDS011;50493;50.970;10.082;2023-05-27T09:58:45;8.90;;;4.07;;
64188;SDS011;50493;50.970;10.082;2023-05-27T10:01:11;6.32;;;3.45;;
64188;SDS011;50493;50.970;10.082;2023-05-27T10:03:37;6.93;;;3.72;;
64188;SDS011;50493;50.970;10.082;2023-05-27T10:06:02;11.80;;;4.32;;
64188;SDS011;50493;50.970;10.082;2023-05-27T10:08:29;9.57;;;4.03;;
64188;SDS011;50493;50.970;10.082;2023-05-27T10:10:55;8.63;;;3.80;;
64188;SDS011;50493;50.970;10.082;2023-05-27T10:13:23;10.60;;;4.20;;
64188;SDS011;50493;50.970;10.082;2023-05-27T10:15:51;9.38;;;4.30;;
64188;SDS011;50493;50.970;10.082;2023-05-27T10:18:23;7.30;;;3.53;;
64188;SDS011;50493;50.970;10.082;2023-05-27T10:20:50;9.02;;;3.45;;
64188;SDS011;50493;50.970;10.082;2023-05-27T10:23:16;10.57;;;4.55;;
64188;SDS011;50493;50.970;10.082;2023-05-27T10:25:45;29.70;;;5.47;;
64188;SDS011;50493;50.970;10.082;2023-05-27T10:28:26;44.30;;;6.72;;
64188;SDS011;50493;50.970;10.082;2023-05-27T10:30:53;15.77;;;4.70;;
64188;SDS011;50493;50.970;10.082;2023-05-27T10:33:28;11.52;;;4.25;;
64188;SDS011;50493;50.970;10.082;2023-05-27T10:35:54;10.13;;;4.45;;
64188;SDS011;50493;50.970;10.082;2023-05-27T10:38:20;10.60;;;4.15;;
64188;SDS011;50493;50.970;10.082;2023-05-27T10:40:45;16.85;;;4.43;;
64188;SDS011;50493;50.970;10.082;2023-05-27T10:43:15;9.30;;;4.07;;
64188;SDS011;50493;50.970;10.082;2023-05-27T10:45:43;8.88;;;3.78;;
64188;SDS011;50493;50.970;10.082;2023-05-27T10:48:14;8.73;;;3.95;;
64188;SDS011;50493;50.970;10.082;2023-05-27T10:50:40;11.65;;;3.95;;
64188;SDS011;50493;50.970;10.082;2023-05-27T10:53:15;9.48;;;3.97;;
64188;SDS011;50493;50.970;10.082;2023-05-27T10:55:43;9.02;;;4.10;;
64188;SDS011;50493;50.970;10.082;2023-05-27T10:58:09;8.55;;;3.53;;
64188;SDS011;50493;50.970;10.082;2023-05-27T11:00:36;10.13;;;4.25;;
64188;SDS011;50493;50.970;10.082;2023-05-27T11:03:04;11.85;;;4.10;;
64188;SDS011;50493;50.970;10.082;2023-05-27T11:05:29;9.07;;;3.88;;
64188;SDS011;50493;50.970;10.082;2023-05-27T11:07:58;9.43;;;3.92;;
64188;SDS011;50493;50.970;10.082;2023-05-27T11:10:24;11.25;;;3.80;;
64188;SDS011;50493;50.970;10.082;2023-05-27T11:12:50;11.32;;;4.03;;
64188;SDS011;50493;50.970;10.082;2023-05-27T11:15:15;12.15;;;3.83;;
64188;SDS011;50493;50.970;10.082;2023-05-27T11:17:43;10.43;;;4.25;;
64188;SDS011;50493;50.970;10.082;2023-05-27T11:20:10;9.93;;;4.10;;
64188;SDS011;50493;50.970;10.082;2023-05-27T11:22:35;11.77;;;3.78;;
64188;SDS011;50493;50.970;10.082;2023-05-27T11:25:02;11.18;;;4.60;;
64188;SDS011;50493;50.970;10.082;2023-05-27T11:27:34;7.75;;;3.70;;
64188;SDS011;50493;50.970;10.082;2023-05-27T11:30:05;9.65;;;4.45;;
64188;SDS011;50493;50.970;10.082;2023-05-27T11:32:33;22.48;;;4.80;;
64188;SDS011;50493;50.970;10.082;2023-05-27T11:34:59;10.98;;;5.07;;
64188;SDS011;50493;50.970;10.082;2023-05-27T11:37:30;8.90;;;4.28;;
64188;SDS011;50493;50.970;10.082;2023-05-27T11:39:56;12.18;;;5.03;;
64188;SDS011;50493;50.970;10.082;2023-05-27T11:42:21;10.27;;;4.55;;
64188;SDS011;50493;50.970;10.082;2023-05-27T11:44:49;10.85;;;4.55;;
64188;SDS011;50493;50.970;10.082;2023-05-27T11:47:15;12.95;;;5.45;;
64188;SDS011;50493;50.970;10.082;2023-05-27T11:49:41;11.55;;;4.50;;
64188;SDS011;50493;50.970;10.082;2023-05-27T11:52:07;14.00;;;5.07;;
64188;SDS011;50493;50.970;10.082;2023-05-27T11:54:33;12.38;;;5.70;;
64188;SDS011;50493;50.970;10.082;2023-05-27T11:56:59;11.35;;;4.53;;
64188;SDS011;50493;50.970;10.082;2023-05-27T11:59:24;10.25;;;3.75;;
64188;SDS011;50493;50.970;10.082;2023-05-27T12:01:50;11.80;;;4.32;;
64188;SDS011;50493;50.970;10.082;2023-05-27T12:04:16;11.23;;;4.30;;
64188;SDS011;50493;50.970;10.082;2023-05-27T12:06:42;11.52;;;4.20;;
64188;SDS011;50493;50.970;10.082;2023-05-27T12:09:09;10.02;;;4.22;;
64188;SDS011;50493;50.970;10.082;2023-05-27T12:11:37;11.23;;;4.18;;
64188;SDS011;50493;50.970;10.082;2023-05-27T12:14:03;10.60;;;4.60;;
64188;SDS011;50493;50.970;10.082;2023-05-27T12:16:28;10.25;;;4.45;;
64188;SDS011;50493;50.970;10.082;2023-05-27T12:18:54;10.65;;;4.28;;
64188;SDS011;50493;50.970;10.082;2023-05-27T12:21:20;9.73;;;4.72;;
64188;SDS011;50493;50.970;10.082;2023-05-27T12:23:46;10.90;;;4.15;;
64188;SDS011;50493;50.970;10.082;2023-05-27T12:26:12;9.80;;;3.97;;
64188;SDS011;50493;50.970;10.082;2023-05-27T12:28:40;9.05;;;3.78;;
64188;SDS011;50493;50.970;10.082;2023-05-27T12:31:06;10.80;;;3.65;;
64188;SDS011;50493;50.970;10.082;2023-05-27T12:33:31;8.82;;;3.65;;
64188;SDS011;50493;50.970;10.082;2023-05-27T12:35:57;9.60;;;3.63;;
64188;SDS011;50493;50.970;10.082;2023-05-27T12:38:22;9.40;;;3.28;;
64188;SDS011;50493;50.970;10.082;2023-05-27T12:40:48;10.30;;;3.90;;
64188;SDS011;50493;50.970;10.082;2023-05-27T12:43:13;8.13;;;3.70;;
64188;SDS011;50493;50.970;10.082;2023-05-27T12:45:40;7.45;;;3.83;;
64188;SDS011;50493;50.970;10.082;2023-05-27T12:48:06;8.68;;;3.78;;
64188;SDS011;50493;50.970;10.082;2023-05-27T12:50:31;8.80;;;3.25;;
64188;SDS011;50493;50.970;10.082;2023-05-27T12:52:56;7.00;;;3.45;;
64188;SDS011;50493;50.970;10.082;2023-05-27T12:55:22;9.38;;;3.38;;
64188;SDS011;50493;50.970;10.082;2023-05-27T12:57:48;8.75;;;3.83;;
64188;SDS011;50493;50.970;10.082;2023-05-27T13:00:15;7.65;;;3.20;;
64188;SDS011;50493;50.970;10.082;2023-05-27T13:02:42;7.80;;;3.75;;
64188;SDS011;50493;50.970;10.082;2023-05-27T13:05:08;8.75;;;3.65;;
64188;SDS011;50493;50.970;10.082;2023-05-27T13:07:35;8.77;;;3.33;;
64188;SDS011;50493;50.970;10.082;2023-05-27T13:10:01;6.68;;;3.15;;
64188;SDS011;50493;50.970;10.082;2023-05-27T13:12:27;16.95;;;4.03;;
64188;SDS011;50493;50.970;10.082;2023-05-27T13:14:54;16.52;;;4.18;;
64188;SDS011;50493;50.970;10.082;2023-05-27T13:17:20;8.65;;;3.53;;
64188;SDS011;50493;50.970;10.082;2023-05-27T13:19:47;10.10;;;3.45;;
64188;SDS011;50493;50.970;10.082;2023-05-27T13:22:13;7.60;;;3.10;;
64188;SDS011;50493;50.970;10.082;2023-05-27T13:24:39;7.07;;;3.42;;
64188;SDS011;50493;50.970;10.082;2023-05-27T13:27:04;8.05;;;3.70;;
64188;SDS011;50493;50.970;10.082;2023-05-27T13:29:31;7.55;;;3.25;;
64188;SDS011;50493;50.970;10.082;2023-05-27T13:31:56;7.88;;;3.25;;
64188;SDS011;50493;50.970;10.082;2023-05-27T13:34:21;9.57;;;3.72;;
64188;SDS011;50493;50.970;10.082;2023-05-27T13:36:48;9.23;;;3.80;;
64188;SDS011;50493;50.970;10.082;2023-05-27T13:39:13;9.77;;;3.58;;
64188;SDS011;50493;50.970;10.082;2023-05-27T13:41:39;7.82;;;3.40;;
64188;SDS011;50493;50.970;10.082;2023-05-27T13:44:04;7.97;;;3.15;;
64188;SDS011;50493;50.970;10.082;2023-05-27T13:46:29;8.43;;;3.40;;
64188;SDS011;50493;50.970;10.082;2023-05-27T13:48:55;6.82;;;2.80;;
64188;SDS011;50493;50.970;10.082;2023-05-27T13:51:20;7.93;;;3.20;;
64188;SDS011;50493;50.970;10.082;2023-05-27T13:53:47;7.13;;;3.00;;
64188;SDS011;50493;50.970;10.082;2023-05-27T13:56:13;8.32;;;3.47;;
64188;SDS011;50493;50.970;10.082;2023-05-27T13:58:39;7.07;;;3.08;;
64188;SDS011;50493;50.970;10.082;2023-05-27T14:01:04;9.73;;;3.58;;
64188;SDS011;50493;50.970;10.082;2023-05-27T14:03:30;10.02;;;3.72;;
64188;SDS011;50493;50.970;10.082;2023-05-27T14:05:55;8.20;;;3.25;;
64188;SDS011;50493;50.970;10.082;2023-05-27T14:08:21;9.25;;;3.33;;
64188;SDS011;50493;50.970;10.082;2023-05-27T14:10:48;7.35;;;3.25;;
64188;SDS011;50493;50.970;10.082;2023-05-27T14:13:13;7.32;;;3.55;;
64188;SDS011;50493;50.970;10.082;2023-05-27T14:15:39;9.55;;;3.60;;
64188;SDS011;50493;50.970;10.082;2023-05-27T14:18:04;7.85;;;2.78;;
64188;SDS011;50493;50.970;10.082;2023-05-27T14:20:30;10.70;;;4.00;;
64188;SDS011;50493;50.970;10.082;2023-05-27T14:22:56;7.28;;;3.10;;
64188;SDS011;50493;50.970;10.082;2023-05-27T14:25:23;6.95;;;3.17;;